| Date | Time | Temp. (oF) | Dew Point (oF) | Rel. Hum. (%) | Press. (in.) | Wind Dir. | Wind Speed (mph) | Hourly Rainfall (in.) |
|
|---|---|---|---|---|---|---|---|---|---|
| 1 | 02/26 | 00:00 | 40 | 25 | 55 | 29.81 | NW | 0 | 0.00 |
| 2 | 02/25 | 23:00 | 42 | 26 | 53 | 29.77 | NW | 0 | 0.00 |
| 3 | 02/25 | 22:00 | 43 | 25 | 50 | 29.74 | NW | 0 | 0.00 |
| 4 | 02/25 | 21:00 | 45 | 28 | 52 | 29.68 | NW | 0 | 0.00 |
| 5 | 02/25 | 20:00 | 47 | 40 | 79 | 29.64 | NW | 0 | 0.00 |
| 6 | 02/25 | 19:00 | 49 | 43 | 80 | 29.63 | NW | 0 | 0.00 |
| 7 | 02/25 | 18:00 | 49 | 43 | 81 | 29.60 | NW | 0 | 0.00 |
| 8 | 02/25 | 17:00 | 51 | 46 | 84 | 29.57 | NW | 0 | 0.00 |
| 9 | 02/25 | 16:00 | 52 | 50 | 94 | 29.51 | NW | 0 | 0.28 |
| 10 | 02/25 | 15:00 | 69 | 57 | 66 | 29.39 | NW | 0 | 0.00 |
| 11 | 02/25 | 14:00 | 72 | 57 | 61 | 29.42 | NW | 0 | 0.00 |
| 12 | 02/25 | 13:00 | 69 | 57 | 68 | 29.49 | NW | 0 | 0.00 |
| 13 | 02/25 | 12:00 | 68 | 58 | 71 | 29.55 | NW | 0 | 0.00 |
| 14 | 02/25 | 11:00 | 66 | 58 | 76 | 29.60 | NW | 0 | 0.00 |
| 15 | 02/25 | 10:00 | 64 | 57 | 80 | 29.61 | NW | 0 | 0.00 |
| 16 | 02/25 | 09:00 | 61 | 57 | 88 | 29.64 | NW | 0 | 0.00 |
| 17 | 02/25 | 08:00 | 59 | 56 | 92 | 29.66 | NW | 0 | 0.00 |
| 18 | 02/25 | 07:00 | 59 | 57 | 94 | 29.66 | NW | 0 | 0.00 |
| 19 | 02/25 | 06:00 | 59 | 57 | 94 | 29.69 | NW | 0 | 0.00 |
| 20 | 02/25 | 05:00 | 58 | 56 | 94 | 29.72 | NW | 0 | 0.00 |
| 21 | 02/25 | 04:00 | 58 | 55 | 92 | 29.72 | NW | 0 | 0.00 |
| 22 | 02/25 | 03:00 | 59 | 56 | 90 | 29.74 | NW | 0 | 0.00 |
| 23 | 02/25 | 02:00 | 60 | 56 | 88 | 29.76 | NW | 0 | 0.00 |
| 24 | 02/25 | 01:00 | 61 | 57 | 87 | 29.78 | NW | 0 | 0.00 |